Time;durP1;ratioP1;P1;durP2;ratioP2;P2;SDS_P1;SDS_P2;PMS_P1;PMS_P2;Temp;Humidity;BMP_temperature;BMP_pressure;BME280_temperature;BME280_humidity;BME280_pressure;Samples;Min_cycle;Max_cycle;Signal;HPM_P1;HPM_P2
2022/04/14 00:02:16;;;;;;;22.30;12.23;;;;;;;-144.47;51.01;53245.41;5065156;28;20571;-68
2022/04/14 00:04:41;;;;;;;28.85;12.20;;;;;;;-144.47;51.20;53269.22;5050186;28;20037;-69
2022/04/14 00:07:06;;;;;;;22.52;11.88;;;;;;;-144.47;51.34;53277.19;5058734;28;20033;-68
2022/04/14 00:09:35;;;;;;;21.52;10.52;;;;;;;-144.47;51.62;53223.56;5050235;28;20595;-70
2022/04/14 00:12:00;;;;;;;25.20;11.27;;;;;;;-144.47;51.94;53241.44;5059641;28;20461;-67
2022/04/14 00:14:25;;;;;;;28.73;12.07;;;;;;;-144.47;51.90;53261.28;5052038;28;20127;-68
2022/04/14 00:16:51;;;;;;;23.38;10.85;;;;;;;-144.47;52.07;53257.31;5065949;28;20044;-67
2022/04/14 00:19:16;;;;;;;26.13;11.05;;;;;;;-144.47;52.29;53247.38;5064114;28;20041;-68
2022/04/14 00:21:41;;;;;;;24.50;10.93;;;;;;;-144.47;52.35;53261.28;5062681;28;20375;-68
2022/04/14 00:24:07;;;;;;;23.40;11.60;;;;;;;-144.47;52.44;53239.44;5056246;28;20032;-69
2022/04/14 00:26:32;;;;;;;25.80;11.77;;;;;;;-144.47;52.36;53229.50;5067973;28;20037;-69
2022/04/14 00:28:57;;;;;;;24.88;11.45;;;;;;;-144.47;52.42;53265.25;5059891;28;20091;-67
2022/04/14 00:31:23;;;;;;;26.70;10.85;;;;;;;-144.47;52.76;53265.25;5062815;28;20036;-69
2022/04/14 00:33:49;;;;;;;21.95;10.40;;;;;;;-144.47;52.90;53245.41;5069733;28;20021;-69
2022/04/14 00:36:15;;;;;;;26.80;12.25;;;;;;;-144.47;52.98;53297.03;5055027;28;20611;-68
2022/04/14 00:38:40;;;;;;;22.40;11.07;;;;;;;-144.47;53.20;53247.38;5049133;28;20029;-68
2022/04/14 00:41:05;;;;;;;22.20;10.93;;;;;;;-144.47;53.54;53275.19;5060167;28;20040;-68
2022/04/14 00:43:32;;;;;;;23.77;10.25;;;;;;;-144.47;53.56;53273.22;5049335;28;20033;-68
2022/04/14 00:45:59;;;;;;;20.42;10.88;;;;;;;-144.47;53.65;53239.44;5049712;28;20528;-67
2022/04/14 00:48:25;;;;;;;18.02;10.43;;;;;;;-144.47;53.75;53221.56;5058726;28;20694;-68
2022/04/14 00:50:50;;;;;;;20.40;10.57;;;;;;;-144.47;53.88;53251.34;5058268;28;20029;-68
2022/04/14 00:53:16;;;;;;;23.92;10.98;;;;;;;-144.47;54.13;53257.31;5063665;28;20056;-68
2022/04/14 00:55:41;;;;;;;22.60;10.55;;;;;;;-144.47;54.38;53243.41;5062259;28;20028;-68
2022/04/14 00:58:07;;;;;;;25.92;11.02;;;;;;;-144.47;54.42;53281.16;5049341;28;20025;-69
2022/04/14 01:00:32;;;;;;;25.88;12.80;;;;;;;-144.47;54.28;53279.16;5062257;28;20028;-69
2022/04/14 01:02:57;;;;;;;25.25;12.40;;;;;;;-144.47;54.38;53275.19;5048539;28;20033;-70
2022/04/14 01:05:24;;;;;;;26.15;12.23;;;;;;;-144.47;54.54;53263.28;5063073;28;20039;-69
2022/04/14 01:07:51;;;;;;;25.55;11.75;;;;;;;-144.47;54.79;53289.09;5067794;28;20037;-68
2022/04/14 01:10:16;;;;;;;24.85;12.05;;;;;;;-144.47;54.95;53241.44;5071288;28;20040;-69
2022/04/14 01:12:42;;;;;;;29.10;12.85;;;;;;;-144.47;54.94;53283.13;5071702;28;20009;-69
2022/04/14 01:15:15;;;;;;;20.00;10.82;;;;;;;-144.47;55.10;53271.22;5068114;28;20436;-69
2022/04/14 01:17:41;;;;;;;24.38;10.88;;;;;;;-144.47;55.35;53253.34;5062384;28;20037;-70
2022/04/14 01:20:11;;;;;;;24.92;11.02;;;;;;;-144.47;55.34;53299.03;5069885;28;20166;-68
2022/04/14 01:22:52;;;;;;;22.45;12.02;;;;;;;-144.47;55.58;53318.91;5063469;28;20132;-68
2022/04/14 01:25:17;;;;;;;25.48;11.43;;;;;;;-144.47;55.52;53267.25;5071645;28;20098;-69
2022/04/14 01:27:43;;;;;;;23.85;11.25;;;;;;;-144.47;55.47;53281.16;5071180;28;20428;-68
2022/04/14 01:30:09;;;;;;;25.48;12.90;;;;;;;-144.47;55.92;53263.28;5071621;28;20245;-70
2022/04/14 01:32:34;;;;;;;19.92;10.73;;;;;;;-144.47;55.89;53241.44;5067973;28;20031;-69
2022/04/14 01:34:59;;;;;;;21.27;10.88;;;;;;;-144.47;56.05;53261.28;5071113;28;20037;-69
2022/04/14 01:37:25;;;;;;;21.08;11.52;;;;;;;-144.47;55.92;53316.91;5070359;28;20039;-69
2022/04/14 01:39:50;;;;;;;22.73;12.38;;;;;;;-144.47;55.95;53279.16;5072008;28;20020;-68
2022/04/14 01:42:15;;;;;;;18.15;10.90;;;;;;;-144.47;55.98;53263.28;5068732;28;20097;-68
2022/04/14 01:44:41;;;;;;;21.85;11.32;;;;;;;-144.47;55.76;53249.38;5068644;28;20037;-68
2022/04/14 01:47:06;;;;;;;20.83;10.88;;;;;;;-144.47;55.71;53277.19;5071138;28;20048;-67
2022/04/14 01:49:31;;;;;;;27.17;10.82;;;;;;;-144.47;55.85;53291.09;5070592;28;20035;-67
2022/04/14 01:51:57;;;;;;;21.85;10.57;;;;;;;-144.47;55.73;53273.22;5070576;28;20103;-67
2022/04/14 01:54:22;;;;;;;21.23;10.23;;;;;;;-144.47;56.05;53265.25;5069780;28;20017;-67
2022/04/14 01:56:49;;;;;;;24.52;11.35;;;;;;;-144.47;55.94;53279.16;5069587;28;20512;-67
2022/04/14 01:59:14;;;;;;;36.65;11.88;;;;;;;-144.47;55.94;53297.03;5063717;28;20063;-67
2022/04/14 02:01:39;;;;;;;21.58;11.88;;;;;;;-144.47;56.03;53281.16;5070182;28;20057;-67
2022/04/14 02:04:07;;;;;;;24.88;12.00;;;;;;;-144.47;55.96;53253.34;5067626;28;20493;-68
2022/04/14 02:06:33;;;;;;;19.50;10.68;;;;;;;-144.47;55.98;53283.13;5070782;28;20079;-69
2022/04/14 02:08:58;;;;;;;23.30;10.70;;;;;;;-144.47;56.24;53265.25;5067555;28;20505;-67
2022/04/14 02:11:23;;;;;;;22.02;10.38;;;;;;;-144.47;56.38;53277.19;5070550;28;20048;-69
2022/04/14 02:13:49;;;;;;;26.48;11.10;;;;;;;-144.47;56.52;53287.13;5068269;28;20041;-69
2022/04/14 02:16:15;;;;;;;19.13;10.68;;;;;;;-144.47;56.52;53314.91;5064189;28;20447;-69
2022/04/14 02:18:40;;;;;;;20.30;10.85;;;;;;;-144.47;56.76;53320.88;5070996;28;20074;-69
2022/04/14 02:21:06;;;;;;;22.00;10.88;;;;;;;-144.47;57.21;53265.25;5064845;28;20401;-69
2022/04/14 02:23:31;;;;;;;20.58;11.73;;;;;;;-144.47;57.29;53289.09;5070271;28;20125;-69
2022/04/14 02:25:57;;;;;;;17.73;10.80;;;;;;;-144.47;57.34;53253.34;5070898;28;20551;-68
2022/04/14 02:28:22;;;;;;;19.42;10.50;;;;;;;-144.47;57.63;53287.13;5070456;28;20033;-68
2022/04/14 02:30:48;;;;;;;24.85;12.00;;;;;;;-144.47;57.69;53265.25;5068261;28;20035;-69
2022/04/14 02:33:14;;;;;;;23.52;11.45;;;;;;;-144.47;57.82;53273.22;5070179;28;20085;-68
2022/04/14 02:35:40;;;;;;;22.52;10.65;;;;;;;-144.47;57.88;53308.97;5069963;28;20033;-68
2022/04/14 02:38:05;;;;;;;18.98;10.98;;;;;;;-144.47;57.98;53295.06;5070186;28;20090;-69
2022/04/14 02:40:30;;;;;;;21.70;10.25;;;;;;;-144.47;58.33;53279.16;5070482;28;20044;-70
2022/04/14 02:42:57;;;;;;;19.77;10.20;;;;;;;-144.47;58.19;53241.44;5069765;28;20470;-69
2022/04/14 02:45:26;;;;;;;16.83;11.13;;;;;;;-144.47;58.30;53301.03;5070526;28;20017;-68
2022/04/14 02:47:53;;;;;;;20.48;10.95;;;;;;;-144.47;58.66;53259.31;5067581;28;20127;-70
2022/04/14 02:50:20;;;;;;;26.70;12.45;;;;;;;-144.47;58.83;53275.19;5064516;28;20440;-69
2022/04/14 02:52:46;;;;;;;25.02;12.02;;;;;;;-144.47;59.03;53281.16;5069335;28;20052;-69
2022/04/14 02:55:12;;;;;;;25.65;11.48;;;;;;;-144.47;58.88;53265.25;5068122;28;20420;-69
2022/04/14 02:57:37;;;;;;;26.88;11.80;;;;;;;-144.47;59.15;53271.22;5069864;28;20021;-69
2022/04/14 03:00:11;;;;;;;23.73;11.73;;;;;;;-144.47;59.01;53289.09;5061925;28;20077;-69
2022/04/14 03:02:37;;;;;;;20.30;11.45;;;;;;;-144.47;59.24;53259.31;5066488;28;20506;-68
2022/04/14 03:05:04;;;;;;;20.60;11.55;;;;;;;-144.47;59.05;53291.09;5069368;28;20143;-67
2022/04/14 03:07:29;;;;;;;22.48;11.48;;;;;;;-144.47;59.42;53289.09;5056115;28;20060;-70
2022/04/14 03:09:54;;;;;;;22.02;12.07;;;;;;;-144.47;59.37;53293.06;5061888;28;20044;-69
2022/04/14 03:12:20;;;;;;;19.77;11.02;;;;;;;-144.47;59.42;53306.97;5068690;28;20036;-69
2022/04/14 03:14:49;;;;;;;20.48;11.50;;;;;;;-144.47;59.64;53322.88;5068413;28;20036;-70
2022/04/14 03:17:15;;;;;;;28.98;12.13;;;;;;;-144.47;59.67;53295.06;5067312;28;20506;-68
2022/04/14 03:19:40;;;;;;;22.48;11.45;;;;;;;-144.47;60.20;53310.94;5067781;28;20032;-69
2022/04/14 03:22:06;;;;;;;22.10;12.20;;;;;;;-144.47;60.50;53273.22;5063837;28;20032;-69
2022/04/14 03:24:31;;;;;;;24.90;12.82;;;;;;;-144.47;61.00;53310.94;5065897;28;20031;-68
2022/04/14 03:26:57;;;;;;;26.23;14.90;;;;;;;-144.47;61.51;53281.16;5063751;28;20052;-68
2022/04/14 03:29:23;;;;;;;24.88;15.20;;;;;;;-144.47;61.56;53303.00;5066227;28;20024;-69
2022/04/14 03:31:48;;;;;;;25.98;15.18;;;;;;;-144.47;61.82;53312.94;5060642;28;20024;-69
2022/04/14 03:34:13;;;;;;;28.48;14.20;;;;;;;-144.47;61.58;53326.84;5064483;28;20017;-69
2022/04/14 03:36:39;;;;;;;25.40;16.00;;;;;;;-144.47;61.99;53277.19;5066652;28;20020;-68
2022/04/14 03:39:04;;;;;;;31.17;16.17;;;;;;;-144.47;62.23;53285.13;5063440;28;20060;-69
2022/04/14 03:41:29;;;;;;;30.52;17.23;;;;;;;-144.47;62.10;53301.03;5065391;28;20032;-69
2022/04/14 03:43:55;;;;;;;25.75;16.38;;;;;;;-144.47;61.86;53279.16;5057465;28;20029;-69
2022/04/14 03:46:20;;;;;;;27.92;15.65;;;;;;;-144.47;61.79;53318.91;5065004;28;20040;-69
2022/04/14 03:48:46;;;;;;;27.05;15.32;;;;;;;-144.47;62.11;53303.00;5068004;28;20073;-68
2022/04/14 03:51:14;;;;;;;26.20;15.80;;;;;;;-144.47;62.19;53320.88;5063032;28;20077;-70
2022/04/14 03:53:43;;;;;;;32.60;16.30;;;;;;;-144.47;62.06;53271.22;5064931;28;20071;-69
2022/04/14 03:56:09;;;;;;;30.02;16.25;;;;;;;-144.47;62.36;53285.13;5062610;28;20261;-69
2022/04/14 03:58:34;;;;;;;29.73;15.82;;;;;;;-144.47;62.71;53305.00;5068013;28;20143;-69
2022/04/14 04:01:00;;;;;;;34.78;15.57;;;;;;;-144.47;62.89;53322.88;5067870;28;20031;-69
2022/04/14 04:03:26;;;;;;;30.42;15.68;;;;;;;-144.47;62.86;53289.09;5065069;28;20449;-70
2022/04/14 04:05:52;;;;;;;33.60;15.70;;;;;;;-144.47;63.15;53334.78;5067998;28;20433;-71
2022/04/14 04:08:18;;;;;;;28.15;14.45;;;;;;;-144.47;63.31;53303.00;5061672;28;20025;-70
2022/04/14 04:10:44;;;;;;;36.33;13.90;;;;;;;-144.47;63.40;53297.03;5066984;28;20486;-70
2022/04/14 04:13:09;;;;;;;26.52;14.60;;;;;;;-144.47;63.53;53303.00;5071634;28;20089;-69
2022/04/14 04:15:34;;;;;;;27.05;14.20;;;;;;;-144.47;63.61;53283.13;5068600;28;20029;-69
2022/04/14 04:18:00;;;;;;;24.92;14.48;;;;;;;-144.47;63.75;53328.81;5061841;28;20047;-67
2022/04/14 04:20:25;;;;;;;24.95;13.35;;;;;;;-144.47;63.89;53308.97;5066542;28;20501;-69
2022/04/14 04:22:50;;;;;;;28.20;14.98;;;;;;;-144.47;63.95;53293.06;5067736;28;20044;-70
2022/04/14 04:25:16;;;;;;;29.02;14.18;;;;;;;-144.47;64.01;53310.94;5068436;28;20036;-68
2022/04/14 04:27:41;;;;;;;22.95;12.88;;;;;;;-144.47;64.06;53314.91;5067828;28;20103;-68
2022/04/14 04:30:08;;;;;;;28.17;14.30;;;;;;;-144.47;64.18;53271.22;5068638;28;20036;-67
2022/04/14 04:32:34;;;;;;;20.02;13.75;;;;;;;-144.47;64.55;53314.91;5062876;28;20020;-69
2022/04/14 04:35:04;;;;;;;28.30;13.68;;;;;;;-144.47;64.43;53310.94;5068351;28;20036;-69
2022/04/14 04:37:30;;;;;;;28.75;13.45;;;;;;;-144.47;64.65;53308.97;5068644;28;20582;-69
2022/04/14 04:39:55;;;;;;;29.85;14.20;;;;;;;-144.47;64.70;53293.06;5067325;28;20028;-69
2022/04/14 04:42:21;;;;;;;25.85;13.82;;;;;;;-144.47;64.49;53273.22;5071250;28;20080;-69
2022/04/14 04:44:46;;;;;;;25.52;13.80;;;;;;;-144.47;64.59;53287.13;5074515;28;20513;-68
2022/04/14 04:47:11;;;;;;;25.80;14.38;;;;;;;-144.47;64.57;53299.03;5069066;28;20524;-70
2022/04/14 04:49:37;;;;;;;31.70;14.23;;;;;;;-144.47;64.51;53312.94;5067122;28;20032;-69
2022/04/14 04:52:02;;;;;;;19.98;12.40;;;;;;;-144.47;64.27;53306.97;5068791;28;20024;-69
2022/04/14 04:54:27;;;;;;;19.58;11.77;;;;;;;-144.47;64.12;53295.06;5067697;28;20028;-69
2022/04/14 04:59:20;;;;;;;26.60;12.85;;;;;;;-144.47;63.95;53322.88;5010134;28;20053;-66
2022/04/14 05:01:46;;;;;;;45.92;15.10;;;;;;;-144.47;63.54;53289.09;5011276;28;20042;-66
2022/04/14 05:04:11;;;;;;;22.25;12.65;;;;;;;-144.47;63.61;53285.13;5013353;28;20013;-68
2022/04/14 05:06:38;;;;;;;23.17;13.27;;;;;;;-144.47;63.80;53283.13;5028088;28;20044;-67
2022/04/14 05:09:03;;;;;;;24.60;13.15;;;;;;;-144.47;63.65;53348.69;5031324;28;20494;-69
2022/04/14 05:11:29;;;;;;;27.20;13.57;;;;;;;-144.47;63.58;53310.94;5033322;28;20034;-69
2022/04/14 05:13:54;;;;;;;24.27;13.55;;;;;;;-144.47;63.60;53316.91;5033614;28;20043;-68
2022/04/14 05:16:19;;;;;;;31.33;13.80;;;;;;;-144.47;63.43;53293.06;5032595;28;20567;-68
2022/04/14 05:18:45;;;;;;;28.27;12.73;;;;;;;-144.47;63.58;53330.81;5032596;28;20029;-67
2022/04/14 05:21:10;;;;;;;30.52;12.90;;;;;;;-144.47;63.25;53336.78;5032841;28;20509;-67
2022/04/14 05:23:35;;;;;;;30.30;13.73;;;;;;;-144.47;63.23;53308.97;5032992;28;20033;-67
2022/04/14 05:26:01;;;;;;;23.95;13.43;;;;;;;-144.47;63.29;53303.00;5032901;28;20112;-69
2022/04/14 05:28:26;;;;;;;26.85;13.70;;;;;;;-144.47;63.08;53303.00;5031962;28;20056;-69
2022/04/14 05:30:51;;;;;;;38.17;13.57;;;;;;;-144.47;63.02;53283.13;5033111;28;20024;-67
2022/04/14 05:33:17;;;;;;;28.75;13.55;;;;;;;-144.47;62.61;53320.88;5033000;28;20402;-68
2022/04/14 05:35:44;;;;;;;26.13;13.60;;;;;;;-144.47;62.62;53261.28;5032629;28;20025;-68
2022/04/14 05:38:10;;;;;;;31.88;13.98;;;;;;;-144.47;62.41;53344.72;5033403;28;20063;-69
2022/04/14 05:40:41;;;;;;;28.92;12.90;;;;;;;-144.47;62.40;53305.00;5033808;28;20101;-69
2022/04/14 05:43:06;;;;;;;28.10;14.25;;;;;;;-144.47;62.31;53281.16;5027963;28;20029;-67
2022/04/14 05:45:32;;;;;;;39.75;14.38;;;;;;;-144.47;62.48;53267.25;5032718;28;20025;-69
2022/04/14 05:47:57;;;;;;;28.42;14.45;;;;;;;-144.47;62.46;53310.94;5030876;28;20037;-68
2022/04/14 05:50:23;;;;;;;28.40;13.68;;;;;;;-144.47;62.37;53285.13;5038236;28;20032;-68
2022/04/14 05:52:48;;;;;;;29.10;13.90;;;;;;;-144.47;62.41;53301.03;5034783;28;20129;-68
2022/04/14 05:55:13;;;;;;;27.10;14.02;;;;;;;-144.47;62.14;53289.09;5032160;28;20031;-68
2022/04/14 05:57:39;;;;;;;32.88;15.50;;;;;;;-144.47;62.23;53299.03;5032565;28;20029;-67
2022/04/14 06:00:05;;;;;;;33.53;14.95;;;;;;;-144.47;62.42;53312.94;5033273;28;20568;-68
2022/04/14 06:02:30;;;;;;;33.55;13.50;;;;;;;-144.47;62.46;53283.13;5031802;28;20144;-69
2022/04/14 06:04:56;;;;;;;29.77;13.52;;;;;;;-144.47;62.41;53277.19;5031820;28;20136;-67
2022/04/14 06:07:21;;;;;;;28.25;14.35;;;;;;;-144.47;62.12;53318.91;5032631;28;20041;-68
2022/04/14 06:09:46;;;;;;;41.33;13.63;;;;;;;-144.47;62.49;53283.13;5033240;28;20492;-68
2022/04/14 06:12:12;;;;;;;30.65;15.05;;;;;;;-144.47;62.48;53301.03;5032534;28;20656;-68
2022/04/14 06:14:37;;;;;;;36.97;15.20;;;;;;;-144.47;62.30;53301.03;5033219;28;20037;-66
2022/04/14 06:17:03;;;;;;;34.85;14.10;;;;;;;-144.47;62.33;53312.94;5029787;28;20040;-68
2022/04/14 06:19:28;;;;;;;33.97;13.68;;;;;;;-144.47;62.58;53305.00;5027519;28;20119;-69
2022/04/14 06:21:54;;;;;;;23.60;13.88;;;;;;;-144.47;62.24;53299.03;5032391;28;20494;-68
2022/04/14 06:24:19;;;;;;;33.10;14.30;;;;;;;-144.47;62.15;53316.91;5032345;28;20061;-69
2022/04/14 06:26:44;;;;;;;27.75;13.57;;;;;;;-144.47;62.16;53303.00;5031911;28;20099;-68
2022/04/14 06:29:10;;;;;;;28.90;14.40;;;;;;;-144.47;62.19;53306.97;5032705;28;20061;-67
2022/04/14 06:31:35;;;;;;;30.98;13.68;;;;;;;-144.47;62.23;53310.94;5031805;28;20118;-66
2022/04/14 06:34:02;;;;;;;34.50;13.90;;;;;;;-144.47;61.88;53297.03;5030663;28;20037;-67
2022/04/14 06:36:27;;;;;;;33.63;15.77;;;;;;;-144.47;61.83;53308.97;5031702;28;20075;-71
2022/04/14 06:38:53;;;;;;;30.73;13.50;;;;;;;-144.47;61.64;53308.97;5030390;28;20033;-66
2022/04/14 06:41:18;;;;;;;31.73;13.50;;;;;;;-144.47;61.60;53301.03;5021840;28;20423;-69
2022/04/14 06:43:45;;;;;;;26.75;13.32;;;;;;;-144.47;61.42;53305.00;5027533;28;20060;-67
2022/04/14 06:46:10;;;;;;;25.52;13.15;;;;;;;-144.47;61.18;53247.38;5028576;28;20045;-66
2022/04/14 06:48:36;;;;;;;35.50;12.68;;;;;;;-144.47;61.45;53301.03;5032347;28;20021;-67
2022/04/14 06:51:01;;;;;;;35.95;13.15;;;;;;;-144.47;61.45;53306.97;5031482;28;20040;-69
2022/04/14 06:53:27;;;;;;;33.45;14.00;;;;;;;-144.47;61.51;53305.00;5031315;28;20040;-70
2022/04/14 06:55:53;;;;;;;28.88;14.48;;;;;;;-144.47;61.39;53281.16;5031854;28;20637;-66
2022/04/14 06:58:21;;;;;;;37.65;13.75;;;;;;;-144.47;61.34;53289.09;5031106;28;20400;-69
2022/04/14 07:00:47;;;;;;;35.70;13.27;;;;;;;-144.47;61.20;53310.94;5032135;28;20032;-70
2022/04/14 07:03:12;;;;;;;26.85;12.52;;;;;;;-144.47;61.04;53306.97;5032114;28;20030;-67
2022/04/14 07:05:37;;;;;;;32.80;13.32;;;;;;;-144.47;61.01;53310.94;5030005;28;20108;-68
2022/04/14 07:08:03;;;;;;;29.85;12.07;;;;;;;-144.47;60.79;53283.13;5031383;28;20172;-70
2022/04/14 07:10:28;;;;;;;33.30;12.18;;;;;;;-144.47;60.49;53283.13;5032070;28;20041;-67
2022/04/14 07:12:57;;;;;;;26.45;13.27;;;;;;;-144.47;60.36;53265.25;5037433;28;20048;-66
2022/04/14 07:15:22;;;;;;;28.15;14.00;;;;;;;-144.47;60.21;53267.25;5032314;28;20071;-67
2022/04/14 07:17:48;;;;;;;36.17;13.07;;;;;;;-144.47;59.92;53259.31;5028807;28;20499;-69
2022/04/14 07:20:13;;;;;;;34.55;13.90;;;;;;;-144.47;60.05;53265.25;5031016;28;20713;-69
2022/04/14 07:22:42;;;;;;;29.27;11.93;;;;;;;-144.47;59.65;53273.22;5031300;28;20038;-69
2022/04/14 07:25:07;;;;;;;39.25;13.52;;;;;;;-144.47;59.46;53271.22;5031925;28;20025;-70
2022/04/14 07:27:32;;;;;;;30.88;12.40;;;;;;;-144.47;59.32;53303.00;5032494;28;20157;-67
2022/04/14 07:29:58;;;;;;;33.20;13.90;;;;;;;-144.47;59.20;53253.34;5029844;28;20064;-69
2022/04/14 07:32:23;;;;;;;26.77;12.57;;;;;;;-144.47;58.98;53277.19;5031281;28;20034;-68
2022/04/14 07:34:48;;;;;;;26.60;12.65;;;;;;;-144.47;58.49;53273.22;5029574;28;20033;-69
2022/04/14 07:37:14;;;;;;;22.33;12.75;;;;;;;-144.47;58.46;53231.50;5030578;28;20678;-67
2022/04/14 07:39:40;;;;;;;27.77;11.32;;;;;;;-144.47;58.78;53267.25;5032549;28;20095;-67
2022/04/14 07:42:05;;;;;;;26.42;12.48;;;;;;;-144.47;58.29;53269.22;5031168;28;20041;-69
2022/04/14 07:44:31;;;;;;;21.90;12.40;;;;;;;-144.47;58.06;53289.09;5034464;28;20041;-69
2022/04/14 07:46:56;;;;;;;20.45;11.27;;;;;;;-144.47;58.15;53273.22;5023490;28;20040;-69
2022/04/14 07:49:22;;;;;;;28.10;11.02;;;;;;;-144.47;57.82;53217.59;5030801;28;20087;-67
2022/04/14 07:51:47;;;;;;;31.55;13.25;;;;;;;-144.47;57.51;53233.47;5029804;28;20021;-70
2022/04/14 07:54:12;;;;;;;28.45;11.80;;;;;;;-144.47;57.23;53293.06;5030379;28;20078;-69
2022/04/14 07:56:38;;;;;;;25.08;12.13;;;;;;;-144.47;57.09;53257.31;5030562;28;20399;-70
2022/04/14 07:59:03;;;;;;;34.88;13.88;;;;;;;-144.47;56.93;53237.44;5029833;28;20041;-70
2022/04/14 08:01:29;;;;;;;31.30;12.02;;;;;;;-144.47;56.43;53251.34;5031120;28;20053;-67
2022/04/14 08:03:55;;;;;;;24.50;11.27;;;;;;;-144.47;56.21;53257.31;5030989;28;20475;-71
2022/04/14 08:06:20;;;;;;;24.63;11.43;;;;;;;-144.47;56.22;53279.16;5029231;28;20029;-69
2022/04/14 08:08:46;;;;;;;27.50;10.90;;;;;;;-144.47;55.71;53245.41;5031851;28;20107;-70
2022/04/14 08:11:11;;;;;;;28.10;11.60;;;;;;;-144.47;55.15;53245.41;5030798;28;20114;-70
2022/04/14 08:13:38;;;;;;;25.20;10.45;;;;;;;-144.47;54.63;53221.56;5040703;28;20498;-70
2022/04/14 08:16:10;;;;;;;30.17;10.10;;;;;;;-144.47;54.11;53257.31;5028201;28;20494;-69
2022/04/14 08:18:37;;;;;;;19.55;9.75;;;;;;;-144.47;54.18;53243.41;5024330;28;20032;-69
2022/04/14 08:21:03;;;;;;;21.88;10.32;;;;;;;-144.47;53.80;53215.59;5030305;28;20051;-69
2022/04/14 08:23:28;;;;;;;19.77;10.18;;;;;;;-144.47;53.33;53253.34;5029075;28;20069;-69
2022/04/14 08:25:53;;;;;;;21.48;9.07;;;;;;;-144.47;53.01;53223.56;5030393;28;20585;-68
2022/04/14 08:28:19;;;;;;;26.13;10.25;;;;;;;-144.47;52.47;53235.47;5031005;28;20083;-70
2022/04/14 08:30:44;;;;;;;23.02;10.25;;;;;;;-144.47;52.23;53173.88;5031505;28;20451;-69
2022/04/14 08:33:12;;;;;;;20.42;8.52;;;;;;;-144.47;52.21;53241.44;5031420;28;20399;-70
2022/04/14 08:35:38;;;;;;;27.17;10.38;;;;;;;-144.47;52.11;53219.56;5031263;28;20137;-69
2022/04/14 08:38:06;;;;;;;19.73;9.40;;;;;;;-144.47;51.97;53213.63;5031935;28;20044;-69
2022/04/14 08:40:37;;;;;;;28.00;8.75;;;;;;;-144.47;52.29;53227.53;5040523;28;20042;-69
2022/04/14 08:43:04;;;;;;;16.10;8.13;;;;;;;-144.47;52.44;53245.41;5030161;28;20028;-67
2022/04/14 08:45:32;;;;;;;19.77;9.07;;;;;;;-144.47;52.18;53203.69;5031159;28;20030;-70
2022/04/14 08:48:00;;;;;;;22.00;8.30;;;;;;;-144.47;51.34;53245.41;5031022;28;20029;-70
2022/04/14 08:50:26;;;;;;;19.55;8.75;;;;;;;-144.47;50.59;53207.66;5030862;28;20030;-66
2022/04/14 08:52:52;;;;;;;17.90;7.18;;;;;;;-144.47;50.48;53215.59;5032212;28;20034;-69
2022/04/14 08:55:18;;;;;;;17.48;7.57;;;;;;;-144.47;50.94;53160.00;5032055;28;20506;-69
2022/04/14 08:57:44;;;;;;;29.95;9.57;;;;;;;-144.47;50.72;53227.53;5031487;28;20037;-68
2022/04/14 09:00:16;;;;;;;24.20;7.05;;;;;;;-144.47;50.61;53203.69;5032222;28;20033;-68
2022/04/14 09:02:46;;;;;;;17.00;8.77;;;;;;;-144.47;50.77;53189.78;5031346;28;20034;-68
2022/04/14 09:05:13;;;;;;;26.85;7.75;;;;;;;-144.47;50.21;53237.44;5031192;28;20044;-68
2022/04/14 09:07:38;;;;;;;19.85;6.80;;;;;;;-144.47;50.21;53239.44;5031673;28;20041;-69
2022/04/14 09:10:07;;;;;;;15.35;7.35;;;;;;;-144.47;50.84;53209.66;5031462;28;20029;-68
2022/04/14 09:12:39;;;;;;;20.67;6.72;;;;;;;-144.47;51.09;53193.75;5035373;28;20028;-69
2022/04/14 09:15:05;;;;;;;13.27;5.70;;;;;;;-144.47;51.65;53245.41;5039254;28;20084;-68
2022/04/14 09:17:31;;;;;;;13.02;5.03;;;;;;;-144.47;51.05;53241.44;5026012;28;20118;-68
2022/04/14 09:19:56;;;;;;;19.45;6.78;;;;;;;-144.47;50.54;53201.69;5030765;28;20025;-70
2022/04/14 09:22:23;;;;;;;16.73;5.28;;;;;;;-144.47;50.30;53193.75;5030734;28;20048;-72
2022/04/14 09:24:49;;;;;;;14.43;4.53;;;;;;;-144.47;50.54;53219.56;5030074;28;20440;-68
2022/04/14 09:27:26;;;;;;;11.38;4.65;;;;;;;-144.47;50.69;53249.38;5030790;28;20056;-68
2022/04/14 09:29:53;;;;;;;42.17;5.95;;;;;;;-144.47;50.33;53211.63;5031789;28;20429;-69
2022/04/14 09:32:31;;;;;;;20.80;6.72;;;;;;;-144.47;50.45;53233.47;5033942;28;20083;-68
2022/04/14 09:34:59;;;;;;;10.95;4.53;;;;;;;-144.47;50.23;53229.50;5035529;28;20280;-69
2022/04/14 09:37:26;;;;;;;13.30;4.18;;;;;;;-144.47;50.35;53189.78;5044577;28;20064;-70
2022/04/14 09:40:02;;;;;;;21.80;4.97;;;;;;;-144.47;50.18;53227.53;5016687;28;20095;-69
2022/04/14 09:42:30;;;;;;;15.70;4.22;;;;;;;-144.47;49.66;53225.53;5032230;28;20520;-69
2022/04/14 09:45:15;;;;;;;13.00;4.03;;;;;;;-144.47;50.00;53227.53;5033225;28;20455;-68
2022/04/14 09:47:40;;;;;;;19.77;4.20;;;;;;;-144.47;49.30;53225.53;5033305;28;20037;-69
2022/04/14 09:50:22;;;;;;;11.07;4.15;;;;;;;-144.47;48.83;53213.63;5033815;28;20667;-68
2022/04/14 09:53:08;;;;;;;12.95;4.30;;;;;;;-144.47;49.08;53229.50;5019068;28;20034;-68
2022/04/14 09:55:36;;;;;;;11.88;3.60;;;;;;;-144.47;49.37;53227.53;5034226;28;20116;-70
2022/04/14 09:58:10;;;;;;;13.77;3.72;;;;;;;-144.47;48.87;53189.78;5034893;28;20048;-68
2022/04/14 10:00:43;;;;;;;18.65;4.53;;;;;;;-144.47;49.28;53221.56;5034807;28;20138;-69
2022/04/14 10:03:12;;;;;;;8.80;2.83;;;;;;;-144.47;49.59;53211.63;5034247;28;20029;-70
2022/04/14 10:05:38;;;;;;;6.85;2.40;;;;;;;-144.47;49.76;53167.94;5031871;28;20041;-70
2022/04/14 10:08:07;;;;;;;11.77;3.67;;;;;;;-144.47;49.62;53217.59;5034788;28;20034;-69
2022/04/14 10:10:34;;;;;;;14.40;3.72;;;;;;;-144.47;49.21;53213.63;5034524;28;20045;-68
2022/04/14 10:13:18;;;;;;;14.77;3.30;;;;;;;-144.47;49.73;53183.81;5041574;28;20013;-69
2022/04/14 10:15:48;;;;;;;15.23;3.72;;;;;;;-144.47;49.78;53207.66;5034182;28;20051;-69
2022/04/14 10:18:15;;;;;;;18.23;4.22;;;;;;;-144.47;49.97;53211.63;5033106;28;20033;-67
2022/04/14 10:20:43;;;;;;;17.23;5.88;;;;;;;-144.47;50.63;53229.50;5033676;28;20519;-69
2022/04/14 10:23:10;;;;;;;25.13;5.47;;;;;;;-144.47;51.46;53197.72;5032531;28;20052;-69
2022/04/14 10:25:37;;;;;;;13.00;5.32;;;;;;;-144.47;51.45;53233.47;5033839;28;20036;-68
2022/04/14 10:28:06;;;;;;;9.15;4.88;;;;;;;-144.47;51.67;53183.81;5033847;28;20049;-72
2022/04/14 10:30:31;;;;;;;12.82;5.05;;;;;;;-144.47;51.44;53231.50;5034591;28;20112;-69
2022/04/14 10:32:57;;;;;;;12.93;4.40;;;;;;;-144.47;51.07;53223.56;5036631;28;20068;-69
2022/04/14 10:35:28;;;;;;;12.70;5.30;;;;;;;-144.47;50.97;53197.72;5034161;28;20033;-70
2022/04/14 10:38:12;;;;;;;22.30;6.03;;;;;;;-144.47;50.43;53225.53;5033917;28;20032;-69
2022/04/14 10:40:44;;;;;;;13.90;5.85;;;;;;;-144.47;50.51;53197.72;5033864;28;20044;-68
2022/04/14 10:43:12;;;;;;;13.52;5.78;;;;;;;-144.47;50.03;53193.75;5034402;28;20029;-71
2022/04/14 10:45:50;;;;;;;19.02;5.93;;;;;;;-144.47;50.59;53199.72;5034884;28;20080;-68
2022/04/14 10:48:31;;;;;;;18.83;5.43;;;;;;;-144.47;50.38;53183.81;5033512;28;20033;-67
2022/04/14 10:51:19;;;;;;;19.10;5.90;;;;;;;-144.47;50.40;53233.47;5033537;28;20148;-71
2022/04/14 10:53:55;;;;;;;16.58;5.72;;;;;;;-144.47;50.28;53219.56;5034051;28;20120;-69
2022/04/14 10:56:45;;;;;;;11.02;5.65;;;;;;;-144.47;49.78;53193.75;5049744;23;20506;-70
2022/04/14 10:59:19;;;;;;;20.63;5.93;;;;;;;-144.47;49.85;53221.56;5048972;28;20510;-69
2022/04/14 11:04:29;;;;;;;16.40;5.00;;;;;;;-144.47;50.73;53225.53;5049739;28;20021;-71
2022/04/14 11:07:01;;;;;;;10.85;4.63;;;;;;;-144.47;51.11;53261.28;5037575;28;20596;-71
2022/04/14 11:09:43;;;;;;;17.17;5.07;;;;;;;-144.47;51.41;53233.47;5017405;28;20049;-72